createdAt,value
2023-01-17T00:02:17.276Z,30.80
2023-01-17T00:05:41.722Z,31.50
2023-01-17T00:09:06.305Z,27.40
2023-01-17T00:12:13.159Z,32.70
2023-01-17T00:15:21.371Z,30.20
2023-01-17T00:18:28.143Z,29.70
2023-01-17T00:21:52.128Z,28.30
2023-01-17T00:25:16.240Z,25.60
2023-01-17T00:28:22.248Z,26.90
2023-01-17T00:31:27.847Z,31.40
2023-01-17T00:34:33.374Z,32.60
2023-01-17T00:37:42.297Z,26.10
2023-01-17T00:40:48.708Z,34.80
2023-01-17T00:44:13.453Z,32.70
2023-01-17T00:47:39.449Z,27.90
2023-01-17T00:51:03.624Z,32.70
2023-01-17T00:54:31.108Z,25.50
2023-01-17T00:57:55.189Z,29.10
2023-01-17T01:01:23.610Z,29.30
2023-01-17T01:04:48.405Z,27.90
2023-01-17T01:08:12.951Z,29.70
2023-01-17T01:11:39.568Z,26.50
2023-01-17T01:15:04.328Z,26.70
2023-01-17T01:18:30.616Z,28.20
2023-01-17T01:21:55.133Z,29.50
2023-01-17T01:25:19.862Z,27.10
2023-01-17T01:28:44.970Z,28.80
2023-01-17T01:32:09.681Z,30.40
2023-01-17T01:35:17.790Z,32.70
2023-01-17T01:38:26.539Z,33.10
2023-01-17T01:41:33.215Z,29.10
2023-01-17T01:44:49.064Z,30.50
2023-01-17T01:47:59.317Z,32.50
2023-01-17T01:51:11.012Z,28.40
2023-01-17T01:54:21.786Z,32.10
2023-01-17T01:57:31.278Z,36.20
2023-01-17T02:00:41.049Z,32.70
2023-01-17T02:03:49.104Z,29.50
2023-01-17T02:07:02.125Z,32.50
2023-01-17T02:10:12.932Z,28.90
2023-01-17T02:13:22.021Z,29.60
2023-01-17T02:16:46.426Z,30.40
2023-01-17T02:20:35.207Z,31.30
2023-01-17T02:24:03.331Z,27.60
2023-01-17T02:27:25.015Z,35.00
2023-01-17T02:30:36.865Z,28.80
2023-01-17T02:33:51.727Z,33.20
2023-01-17T02:37:05.560Z,32.30
2023-01-17T02:40:16.436Z,31.50
2023-01-17T02:43:25.935Z,33.30
2023-01-17T02:46:32.728Z,35.80
2023-01-17T02:49:39.532Z,35.30
2023-01-17T02:52:59.936Z,29.70
2023-01-17T02:56:11.716Z,34.00
2023-01-17T02:59:34.608Z,28.70
2023-01-17T03:02:51.457Z,29.80
2023-01-17T03:06:04.345Z,36.80
2023-01-17T03:09:14.439Z,30.70
2023-01-17T03:12:22.315Z,27.50
2023-01-17T03:15:29.690Z,31.60
2023-01-17T03:18:36.421Z,38.00
2023-01-17T03:21:43.042Z,33.00
2023-01-17T03:24:49.740Z,35.70
2023-01-17T03:27:56.476Z,31.20
2023-01-17T03:31:03.152Z,38.90
2023-01-17T03:34:10.019Z,32.80
2023-01-17T03:37:17.208Z,38.10
2023-01-17T03:40:23.922Z,28.60
2023-01-17T03:43:30.612Z,31.30
2023-01-17T03:46:37.540Z,31.10
2023-01-17T03:49:44.583Z,35.30
2023-01-17T03:52:51.339Z,32.00
2023-01-17T03:55:57.911Z,26.90
2023-01-17T03:59:05.660Z,32.40
2023-01-17T04:02:12.537Z,35.80
2023-01-17T04:05:19.575Z,25.00
2023-01-17T04:08:26.795Z,29.10
2023-01-17T04:11:33.532Z,28.10
2023-01-17T04:14:41.121Z,30.50
2023-01-17T04:17:48.303Z,30.20
2023-01-17T04:20:54.993Z,25.80
2023-01-17T04:24:01.767Z,27.30
2023-01-17T04:27:09.172Z,35.50
2023-01-17T04:30:16.513Z,30.40
2023-01-17T04:33:23.199Z,31.80
2023-01-17T04:36:29.935Z,25.90
2023-01-17T04:39:36.728Z,29.60
2023-01-17T04:42:45.276Z,28.80
2023-01-17T04:45:58.372Z,33.30
2023-01-17T04:49:05.190Z,25.70
2023-01-17T04:52:11.895Z,33.20
2023-01-17T04:55:18.976Z,30.70
2023-01-17T04:58:25.742Z,30.30
2023-01-17T05:01:32.626Z,29.00
2023-01-17T05:04:39.679Z,27.80
2023-01-17T05:07:53.510Z,26.50
2023-01-17T05:11:00.300Z,28.00
2023-01-17T05:14:07.036Z,26.40
2023-01-17T05:17:13.753Z,31.90
2023-01-17T05:20:20.934Z,30.80
2023-01-17T05:23:28.066Z,30.60
2023-01-17T05:26:34.771Z,26.10
2023-01-17T05:29:41.996Z,32.10
2023-01-17T05:32:51.515Z,25.70
2023-01-17T05:35:58.252Z,28.80
2023-01-17T05:39:05.143Z,28.10
2023-01-17T05:42:11.827Z,23.10
2023-01-17T05:45:20.266Z,28.30
2023-01-17T05:48:27.181Z,30.70
2023-01-17T05:51:37.782Z,23.70
2023-01-17T05:54:47.215Z,22.30
2023-01-17T05:57:54.587Z,20.70
2023-01-17T06:01:01.439Z,21.80
2023-01-17T06:04:08.442Z,22.00
2023-01-17T06:07:15.268Z,19.70
2023-01-17T06:10:23.355Z,22.90
2023-01-17T06:13:30.217Z,22.70
2023-01-17T06:16:37.052Z,20.40
2023-01-17T06:19:44.103Z,20.20
2023-01-17T06:22:50.826Z,21.90
2023-01-17T06:25:57.808Z,23.40
2023-01-17T06:29:05.229Z,24.20
2023-01-17T06:32:13.475Z,21.10
2023-01-17T06:35:22.220Z,21.50
2023-01-17T06:38:30.159Z,20.40
2023-01-17T06:41:37.045Z,21.10
2023-01-17T06:44:44.032Z,21.40
2023-01-17T06:47:50.792Z,20.30
2023-01-17T06:50:58.055Z,21.00
2023-01-17T06:54:07.673Z,22.20
2023-01-17T07:00:21.057Z,18.70
2023-01-17T07:03:29.067Z,21.60
2023-01-17T07:06:38.184Z,20.40
2023-01-17T07:09:45.123Z,17.60
2023-01-17T07:12:52.664Z,17.80
2023-01-17T07:16:01.400Z,20.30
2023-01-17T07:19:10.607Z,16.60
2023-01-17T07:22:17.469Z,17.10
2023-01-17T07:25:25.583Z,16.60
2023-01-17T07:28:34.204Z,14.60
2023-01-17T07:31:41.232Z,15.40
2023-01-17T07:34:48.048Z,15.50
2023-01-17T07:37:55.686Z,14.00
2023-01-17T07:41:02.675Z,12.00
2023-01-17T07:44:10.052Z,14.20
2023-01-17T07:47:16.881Z,15.30
2023-01-17T07:50:23.871Z,14.30
2023-01-17T07:53:32.778Z,11.90
2023-01-17T07:56:40.092Z,11.80
2023-01-17T07:59:47.145Z,14.80
2023-01-17T08:02:58.653Z,12.10
2023-01-17T08:06:06.811Z,15.20
2023-01-17T08:09:13.781Z,13.20
2023-01-17T08:12:21.896Z,15.10
2023-01-17T08:15:30.789Z,15.30
2023-01-17T08:18:37.681Z,12.70
2023-01-17T08:21:44.622Z,14.10
2023-01-17T08:24:51.302Z,11.60
2023-01-17T08:28:00.831Z,14.90
2023-01-17T08:31:11.299Z,13.20
2023-01-17T08:34:18.167Z,11.70
2023-01-17T08:37:25.347Z,12.70
2023-01-17T08:40:32.965Z,13.10
2023-01-17T08:43:42.238Z,12.60
2023-01-17T08:46:49.131Z,12.70
2023-01-17T08:49:56.118Z,13.90
2023-01-17T08:53:02.930Z,13.20
2023-01-17T08:56:12.066Z,15.00
2023-01-17T08:59:18.924Z,10.20
2023-01-17T09:02:25.927Z,14.60
2023-01-17T09:05:34.220Z,11.60
2023-01-17T09:08:41.738Z,12.30
2023-01-17T09:11:48.600Z,11.30
2023-01-17T09:14:56.477Z,15.40
2023-01-17T09:18:03.488Z,13.40
2023-01-17T09:21:15.259Z,12.90
2023-01-17T09:24:22.159Z,13.60
2023-01-17T09:27:28.867Z,11.20
2023-01-17T09:30:36.110Z,10.40
2023-01-17T09:33:43.379Z,8.50
2023-01-17T09:36:50.314Z,10.60
2023-01-17T09:39:57.143Z,8.90
2023-01-17T09:43:08.871Z,13.50
2023-01-17T09:46:22.779Z,10.70
2023-01-17T09:49:40.856Z,12.00
2023-01-17T09:52:48.094Z,11.40
2023-01-17T09:55:59.307Z,12.10
2023-01-17T09:59:33.264Z,10.10
2023-01-17T10:03:04.180Z,8.00
2023-01-17T10:06:23.533Z,9.40
2023-01-17T10:12:57.655Z,6.20
2023-01-17T10:16:18.296Z,6.80
2023-01-17T10:19:42.874Z,8.80
2023-01-17T10:23:10.894Z,7.80
2023-01-17T10:26:21.563Z,6.50
2023-01-17T10:29:34.114Z,6.00
2023-01-17T10:32:48.221Z,4.90
2023-01-17T10:36:01.415Z,4.80
2023-01-17T10:39:26.553Z,5.70
2023-01-17T10:42:47.491Z,4.20
2023-01-17T10:45:57.772Z,4.70
2023-01-17T10:49:05.125Z,7.20
2023-01-17T10:52:19.200Z,6.70
2023-01-17T10:55:39.114Z,7.90
2023-01-17T10:58:48.217Z,5.40
2023-01-17T11:01:55.154Z,5.40
2023-01-17T11:05:12.269Z,6.30
2023-01-17T11:08:22.653Z,4.60
2023-01-17T11:11:32.175Z,6.20
2023-01-17T11:17:50.070Z,4.00
2023-01-17T11:21:13.022Z,5.30
2023-01-17T11:24:28.299Z,3.90
2023-01-17T11:27:39.517Z,5.10
2023-01-17T11:30:54.755Z,4.60
2023-01-17T11:34:17.945Z,6.70
2023-01-17T11:37:26.362Z,5.20
2023-01-17T11:40:37.540Z,6.40
2023-01-17T11:43:53.361Z,6.60
2023-01-17T11:47:20.254Z,5.60
2023-01-17T11:50:28.716Z,6.90
2023-01-17T11:53:38.257Z,5.70
2023-01-17T11:56:46.579Z,6.90
2023-01-17T11:59:58.563Z,12.10
2023-01-17T12:03:21.228Z,10.00
2023-01-17T12:06:56.500Z,10.00
2023-01-17T12:10:13.970Z,7.50
2023-01-17T12:13:45.838Z,8.70
2023-01-17T12:17:06.123Z,7.30
2023-01-17T12:20:22.681Z,6.70
2023-01-17T12:23:57.950Z,7.30
2023-01-17T12:27:12.881Z,7.50
2023-01-17T12:30:35.671Z,8.30
2023-01-17T12:33:51.922Z,7.90
2023-01-17T12:37:04.350Z,9.80
2023-01-17T12:40:22.171Z,8.50
2023-01-17T12:43:33.571Z,7.60
2023-01-17T12:46:49.128Z,7.30
2023-01-17T12:50:03.340Z,7.50
2023-01-17T12:53:20.784Z,7.70
2023-01-17T12:56:33.356Z,8.00
2023-01-17T12:59:46.428Z,4.50
2023-01-17T13:03:00.880Z,7.90
2023-01-17T13:06:12.187Z,7.40
2023-01-17T13:09:23.619Z,3.90
2023-01-17T13:12:33.908Z,4.00
2023-01-17T13:15:44.007Z,3.80
2023-01-17T13:18:52.211Z,5.90
2023-01-17T13:22:02.033Z,3.50
2023-01-17T13:25:22.946Z,6.00
2023-01-17T13:28:45.043Z,6.10
2023-01-17T13:32:06.720Z,6.30
2023-01-17T13:35:27.713Z,7.10
2023-01-17T13:38:55.023Z,5.40
2023-01-17T13:42:18.067Z,6.50
2023-01-17T13:45:28.092Z,4.60
2023-01-17T13:48:38.518Z,4.70
2023-01-17T13:52:10.834Z,5.90
2023-01-17T13:55:47.145Z,7.10
2023-01-17T13:59:03.425Z,6.50
2023-01-17T14:02:39.528Z,6.20
2023-01-17T14:05:56.989Z,6.00
2023-01-17T14:09:12.006Z,6.60
2023-01-17T14:12:31.989Z,4.50
2023-01-17T14:15:51.379Z,3.70
2023-01-17T14:18:58.664Z,3.80
2023-01-17T14:22:27.357Z,5.10
2023-01-17T14:25:41.764Z,8.80
2023-01-17T14:28:48.857Z,9.10
2023-01-17T14:32:06.650Z,8.00
2023-01-17T14:35:24.063Z,5.00
2023-01-17T14:38:33.085Z,6.70
2023-01-17T14:41:40.262Z,6.10
2023-01-17T14:44:53.305Z,7.90
2023-01-17T14:48:03.313Z,10.60
2023-01-17T14:51:16.135Z,9.40
2023-01-17T14:54:24.778Z,5.80
2023-01-17T14:57:32.014Z,9.10
2023-01-17T15:00:42.201Z,10.20
2023-01-17T15:03:51.629Z,10.90
2023-01-17T15:07:00.553Z,7.40
2023-01-17T15:10:12.896Z,8.40
2023-01-17T15:13:32.497Z,9.40
2023-01-17T15:16:45.849Z,9.00
2023-01-17T15:19:56.913Z,8.60
2023-01-17T15:23:04.183Z,9.10
2023-01-17T15:26:15.141Z,7.90
2023-01-17T15:29:27.116Z,5.50
2023-01-17T15:32:34.352Z,7.40
2023-01-17T15:35:40.985Z,7.70
2023-01-17T15:38:55.755Z,10.30
2023-01-17T15:42:06.565Z,9.80
2023-01-17T15:45:19.904Z,6.00
2023-01-17T15:48:38.669Z,7.70
2023-01-17T15:51:52.199Z,9.30
2023-01-17T15:55:13.566Z,11.30
2023-01-17T15:58:28.551Z,9.40
2023-01-17T16:01:35.703Z,12.30
2023-01-17T16:04:42.983Z,9.40
2023-01-17T16:07:51.235Z,9.90
2023-01-17T16:11:03.640Z,12.90
2023-01-17T16:14:10.500Z,10.80
2023-01-17T16:17:18.783Z,10.80
2023-01-17T16:20:29.502Z,15.30
2023-01-17T16:23:36.461Z,16.60
2023-01-17T16:26:43.483Z,18.00
2023-01-17T16:29:50.326Z,21.80
2023-01-17T16:32:58.648Z,20.60
2023-01-17T16:36:05.792Z,22.70
2023-01-17T16:39:16.302Z,21.30
2023-01-17T16:42:23.168Z,20.80
2023-01-17T16:45:30.026Z,22.60
2023-01-17T16:48:39.597Z,23.10
2023-01-17T16:51:48.493Z,21.50
2023-01-17T16:54:55.684Z,20.20
2023-01-17T16:58:02.697Z,19.80
2023-01-17T17:01:15.569Z,19.70
2023-01-17T17:04:22.806Z,22.10
2023-01-17T17:07:29.988Z,19.10
2023-01-17T17:10:36.866Z,22.40
2023-01-17T17:13:45.361Z,24.60
2023-01-17T17:16:52.787Z,21.10
2023-01-17T17:19:59.983Z,19.20
2023-01-17T17:23:06.934Z,31.80
2023-01-17T17:26:13.750Z,23.30
2023-01-17T17:29:20.967Z,23.10
2023-01-17T17:32:28.346Z,20.60
2023-01-17T17:35:37.265Z,22.40
2023-01-17T17:38:51.715Z,22.80
2023-01-17T17:41:58.727Z,27.50
2023-01-17T17:45:06.633Z,23.00
2023-01-17T17:48:13.476Z,23.20
2023-01-17T17:51:26.919Z,27.00
2023-01-17T17:54:33.781Z,26.10
2023-01-17T17:57:40.574Z,27.90
2023-01-17T18:00:47.811Z,35.10
2023-01-17T18:03:57.360Z,40.30
2023-01-17T18:07:04.332Z,37.90
2023-01-17T18:10:12.905Z,35.40
2023-01-17T18:13:19.702Z,36.20
2023-01-17T18:16:29.461Z,35.60
2023-01-17T18:19:36.338Z,37.00
2023-01-17T18:22:43.930Z,33.10
2023-01-17T18:25:51.021Z,52.00
2023-01-17T18:28:59.889Z,51.70
2023-01-17T18:32:07.109Z,45.50
2023-01-17T18:35:13.968Z,47.80
2023-01-17T18:38:20.814Z,45.20
2023-01-17T18:41:29.196Z,54.90
2023-01-17T18:44:36.001Z,58.20
2023-01-17T18:47:43.119Z,53.90
2023-01-17T18:50:59.407Z,56.80
2023-01-17T18:54:08.852Z,52.70
2023-01-17T19:00:23.482Z,54.60
2023-01-17T19:03:31.612Z,80.70
2023-01-17T19:06:41.591Z,102.40
2023-01-17T19:09:48.639Z,86.00
2023-01-17T19:12:55.431Z,129.70
2023-01-17T19:16:04.166Z,130.40
2023-01-17T19:19:14.028Z,118.00
2023-01-17T19:22:21.697Z,114.80
2023-01-17T19:25:28.605Z,104.40
2023-01-17T19:28:38.179Z,97.40
2023-01-17T19:34:50.828Z,114.60
2023-01-17T19:37:57.987Z,143.80
2023-01-17T19:41:14.764Z,138.60
2023-01-17T19:44:21.863Z,142.70
2023-01-17T19:47:28.693Z,127.00
2023-01-17T19:50:35.573Z,113.20
2023-01-17T19:53:43.313Z,115.90
2023-01-17T19:56:50.203Z,109.80
2023-01-17T19:59:57.006Z,104.70
2023-01-17T20:03:03.655Z,106.20
2023-01-17T20:06:11.851Z,106.30
2023-01-17T20:09:19.346Z,110.20
2023-01-17T20:12:26.209Z,103.00
2023-01-17T20:15:33.195Z,96.70
2023-01-17T20:18:41.540Z,81.20
2023-01-17T20:21:48.305Z,75.50
2023-01-17T20:24:55.347Z,92.90
2023-01-17T20:28:04.914Z,110.40
2023-01-17T20:34:19.686Z,103.70
2023-01-17T20:37:26.596Z,144.10
2023-01-17T20:40:33.799Z,134.60
2023-01-17T20:43:40.825Z,127.40
2023-01-17T20:46:48.730Z,130.50
2023-01-17T20:49:55.633Z,117.40
2023-01-17T20:53:02.309Z,118.60
2023-01-17T20:56:09.861Z,112.30
2023-01-17T20:59:19.439Z,115.60
2023-01-17T21:05:31.523Z,109.80
2023-01-17T21:08:39.416Z,95.10
2023-01-17T21:11:46.854Z,80.40
2023-01-17T21:14:53.828Z,83.40
2023-01-17T21:18:00.507Z,82.10
2023-01-17T21:21:09.090Z,91.50
2023-01-17T21:24:18.778Z,100.80
2023-01-17T21:27:25.600Z,96.30
2023-01-17T21:30:32.362Z,101.80
2023-01-17T21:33:39.183Z,82.70
2023-01-17T21:36:46.023Z,77.50
2023-01-17T21:39:54.973Z,80.40
2023-01-17T21:43:01.801Z,62.40
2023-01-17T21:46:08.869Z,76.20
2023-01-17T21:49:17.311Z,75.60
2023-01-17T21:52:24.425Z,83.00
2023-01-17T21:55:49.114Z,75.10
2023-01-17T21:58:57.549Z,82.20
2023-01-17T22:02:04.193Z,89.20
2023-01-17T22:05:12.612Z,81.40
2023-01-17T22:08:19.490Z,82.10
2023-01-17T22:11:30.592Z,80.80
2023-01-17T22:14:38.642Z,59.70
2023-01-17T22:17:46.591Z,58.70
2023-01-17T22:20:53.293Z,66.50
2023-01-17T22:24:01.385Z,87.50
2023-01-17T22:27:09.906Z,86.50
2023-01-17T22:30:19.549Z,84.60
2023-01-17T22:36:34.987Z,84.00
2023-01-17T22:39:42.036Z,68.90
2023-01-17T22:42:48.931Z,57.50
2023-01-17T22:46:02.254Z,45.50
2023-01-17T22:49:10.600Z,48.40
2023-01-17T22:52:17.395Z,63.50
2023-01-17T22:55:24.296Z,64.20
2023-01-17T22:58:31.745Z,66.10
2023-01-17T23:01:40.586Z,64.30
2023-01-17T23:04:48.997Z,55.20
2023-01-17T23:07:55.972Z,62.30
2023-01-17T23:11:20.096Z,51.90
2023-01-17T23:14:29.514Z,55.00
2023-01-17T23:18:08.535Z,77.30
2023-01-17T23:21:15.218Z,78.70
2023-01-17T23:24:22.015Z,77.50
2023-01-17T23:27:49.817Z,74.80
2023-01-17T23:31:01.574Z,70.60
2023-01-17T23:34:08.219Z,91.80
2023-01-17T23:37:14.933Z,73.30
2023-01-17T23:40:21.968Z,68.20
2023-01-17T23:43:28.627Z,51.80
2023-01-17T23:46:35.451Z,58.80
2023-01-17T23:49:43.488Z,59.50
2023-01-17T23:52:50.272Z,61.40
2023-01-17T23:55:59.517Z,70.10
2023-01-17T23:59:06.379Z,77.60
